createdAt,value
2023-05-16T00:03:17.128Z,99.90
2023-05-16T00:07:20.004Z,99.90
2023-05-16T00:11:23.284Z,99.90
2023-05-16T00:15:26.110Z,99.90
2023-05-16T00:19:30.448Z,99.90
2023-05-16T00:23:33.539Z,99.90
2023-05-16T00:27:43.304Z,99.90
2023-05-16T00:31:46.190Z,99.90
2023-05-16T00:35:50.555Z,99.90
2023-05-16T00:39:53.369Z,99.90
2023-05-16T00:43:56.160Z,99.90
2023-05-16T00:47:59.112Z,99.90
2023-05-16T00:52:03.983Z,99.90
2023-05-16T00:56:07.327Z,99.90
2023-05-16T01:00:10.756Z,99.90
2023-05-16T01:04:13.653Z,99.90
2023-05-16T01:08:17.805Z,99.90
2023-05-16T01:12:24.646Z,99.90
2023-05-16T01:16:28.247Z,99.90
2023-05-16T01:20:34.184Z,99.90
2023-05-16T01:24:44.830Z,99.90
2023-05-16T01:28:49.282Z,99.90
2023-05-16T01:32:52.141Z,99.90
2023-05-16T01:37:01.657Z,99.90
2023-05-16T01:41:07.281Z,99.90
2023-05-16T01:45:15.777Z,99.90
2023-05-16T01:49:22.234Z,99.90
2023-05-16T01:53:26.811Z,99.90
2023-05-16T01:57:30.302Z,99.90
2023-05-16T02:01:34.731Z,99.90
2023-05-16T02:05:37.560Z,99.90
2023-05-16T02:09:40.353Z,99.90
2023-05-16T02:13:43.206Z,99.90
2023-05-16T02:17:47.454Z,99.90
2023-05-16T02:21:51.166Z,99.90
2023-05-16T02:25:53.998Z,99.90
2023-05-16T02:29:57.924Z,99.90
2023-05-16T02:34:02.324Z,99.90
2023-05-16T02:38:05.156Z,99.90
2023-05-16T02:42:08.261Z,99.90
2023-05-16T02:46:24.680Z,99.90
2023-05-16T02:50:28.961Z,99.90
2023-05-16T02:54:48.804Z,99.90
2023-05-16T02:59:04.140Z,99.90
2023-05-16T03:03:07.093Z,99.90
2023-05-16T03:07:11.331Z,99.90
2023-05-16T03:11:14.312Z,99.90
2023-05-16T03:15:17.418Z,99.90
2023-05-16T03:19:20.272Z,99.90
2023-05-16T03:23:24.530Z,99.90
2023-05-16T03:27:28.066Z,99.90
2023-05-16T03:31:32.158Z,99.90
2023-05-16T03:35:35.760Z,99.90
2023-05-16T03:39:39.932Z,99.90
2023-05-16T03:43:42.758Z,99.90
2023-05-16T03:47:45.615Z,99.90
2023-05-16T03:51:48.496Z,99.90
2023-05-16T03:55:52.676Z,99.90
2023-05-16T03:59:55.476Z,99.90
2023-05-16T04:03:58.314Z,99.90
2023-05-16T04:08:01.214Z,99.90
2023-05-16T04:12:08.252Z,99.90
2023-05-16T04:16:11.222Z,99.90
2023-05-16T04:20:14.074Z,99.90
2023-05-16T04:24:26.387Z,99.90
2023-05-16T04:28:30.591Z,99.90
2023-05-16T04:32:35.392Z,99.90
2023-05-16T04:36:38.524Z,99.90
2023-05-16T04:40:50.959Z,99.90
2023-05-16T04:44:56.340Z,99.90
2023-05-16T04:48:59.170Z,99.90
2023-05-16T04:53:01.983Z,99.90
2023-05-16T04:57:04.816Z,99.90
2023-05-16T05:01:10.096Z,99.90
2023-05-16T05:05:13.181Z,99.90
2023-05-16T05:09:16.297Z,99.90
2023-05-16T05:13:19.115Z,99.90
2023-05-16T05:17:23.668Z,99.90
2023-05-16T05:21:26.651Z,99.90
2023-05-16T05:25:29.577Z,99.90
2023-05-16T05:29:32.506Z,99.90
2023-05-16T05:33:36.768Z,99.90
2023-05-16T05:37:39.580Z,99.90
2023-05-16T05:41:43.307Z,99.90
2023-05-16T05:45:46.232Z,99.90
2023-05-16T05:49:51.469Z,99.90
2023-05-16T05:53:55.515Z,99.90
2023-05-16T05:57:58.331Z,99.90
2023-05-16T06:02:01.231Z,99.90
2023-05-16T06:06:06.843Z,99.90
2023-05-16T06:10:10.019Z,99.90
2023-05-16T06:14:13.104Z,99.90
2023-05-16T06:18:16.026Z,99.90
2023-05-16T06:22:21.245Z,99.90
2023-05-16T06:26:25.388Z,99.90
2023-05-16T06:30:28.658Z,99.90
2023-05-16T06:34:32.575Z,99.90
2023-05-16T06:38:38.662Z,99.90
2023-05-16T06:42:42.440Z,99.90
2023-05-16T06:46:46.237Z,99.90
2023-05-16T06:50:49.476Z,99.90
2023-05-16T06:54:55.707Z,99.90
2023-05-16T06:58:58.538Z,99.90
2023-05-16T07:03:01.569Z,99.90
2023-05-16T07:07:04.613Z,99.90
2023-05-16T07:11:08.891Z,99.90
2023-05-16T07:15:12.396Z,99.90
2023-05-16T07:19:15.306Z,99.90
2023-05-16T07:23:18.222Z,99.90
2023-05-16T07:27:23.582Z,99.90
2023-05-16T07:31:26.690Z,99.90
2023-05-16T07:35:29.818Z,99.90
2023-05-16T07:39:32.768Z,99.90
2023-05-16T07:43:36.993Z,99.90
2023-05-16T07:47:39.939Z,99.90
2023-05-16T07:51:42.892Z,99.90
2023-05-16T07:55:45.848Z,99.90
2023-05-16T07:59:50.114Z,99.90
2023-05-16T08:03:53.810Z,99.90
2023-05-16T08:07:56.764Z,99.90
2023-05-16T08:12:03.521Z,99.90
2023-05-16T08:16:08.550Z,99.90
2023-05-16T08:20:12.073Z,99.90
2023-05-16T08:24:16.468Z,99.90
2023-05-16T08:28:20.500Z,99.90
2023-05-16T08:32:24.885Z,99.90
2023-05-16T08:36:27.713Z,99.90
2023-05-16T08:40:31.528Z,99.90
2023-05-16T08:44:35.577Z,99.90
2023-05-16T08:48:39.833Z,99.90
2023-05-16T08:52:43.122Z,99.90
2023-05-16T08:56:46.856Z,99.90
2023-05-16T09:00:49.910Z,99.90
2023-05-16T09:04:54.244Z,99.90
2023-05-16T09:08:57.312Z,99.90
2023-05-16T09:13:00.169Z,99.90
2023-05-16T09:17:06.530Z,99.90
2023-05-16T09:21:11.304Z,99.90
2023-05-16T09:25:28.474Z,99.90
2023-05-16T09:29:36.638Z,99.90
2023-05-16T09:33:43.668Z,99.90
2023-05-16T09:37:48.830Z,99.90
2023-05-16T09:41:53.487Z,99.90
2023-05-16T09:46:00.359Z,99.90
2023-05-16T09:50:03.384Z,99.90
2023-05-16T09:54:10.014Z,99.90
2023-05-16T09:58:12.964Z,99.90
2023-05-16T10:02:16.461Z,99.90
2023-05-16T10:06:19.850Z,99.90
2023-05-16T10:10:24.490Z,99.90
2023-05-16T10:14:27.592Z,99.90
2023-05-16T10:18:31.130Z,99.90
2023-05-16T10:22:35.586Z,99.90
2023-05-16T10:26:39.888Z,99.90
2023-05-16T10:30:44.257Z,99.90
2023-05-16T10:34:47.520Z,99.90
2023-05-16T10:38:50.591Z,99.90
2023-05-16T10:42:58.190Z,99.90
2023-05-16T10:47:01.121Z,99.90
2023-05-16T10:51:04.406Z,99.90
2023-05-16T10:55:07.531Z,99.90
2023-05-16T10:59:26.164Z,99.90
2023-05-16T11:03:29.804Z,99.90
2023-05-16T11:07:34.444Z,99.90
2023-05-16T11:11:41.286Z,99.90
2023-05-16T11:15:45.662Z,99.90
2023-05-16T11:19:49.043Z,99.90
2023-05-16T11:24:06.752Z,99.90
2023-05-16T11:28:11.295Z,99.90
2023-05-16T11:32:19.905Z,99.90
2023-05-16T11:36:25.808Z,99.90
2023-05-16T11:40:28.685Z,99.90
2023-05-16T11:44:32.049Z,99.90
2023-05-16T11:48:36.947Z,99.90
2023-05-16T11:52:39.994Z,99.90
2023-05-16T11:56:42.880Z,99.90
2023-05-16T12:00:48.885Z,99.90
2023-05-16T12:04:53.477Z,99.90
2023-05-16T12:08:56.390Z,99.90
2023-05-16T12:12:59.418Z,99.30
2023-05-16T12:17:04.740Z,99.90
2023-05-16T12:21:09.218Z,99.10
2023-05-16T12:25:28.470Z,98.20
2023-05-16T12:29:32.559Z,98.60
2023-05-16T12:33:38.418Z,98.80
2023-05-16T12:37:44.293Z,99.20
2023-05-16T12:41:47.155Z,99.40
2023-05-16T12:45:53.778Z,99.90
2023-05-16T12:49:56.798Z,99.20
2023-05-16T12:58:12.661Z,98.80
2023-05-16T13:02:16.836Z,99.40
2023-05-16T13:06:19.725Z,99.00
2023-05-16T13:10:26.037Z,99.40
2023-05-16T13:14:28.982Z,99.90
2023-05-16T13:18:32.043Z,99.90
2023-05-16T13:22:34.941Z,99.40
2023-05-16T13:26:39.584Z,99.90
2023-05-16T13:30:42.416Z,99.80
2023-05-16T13:34:45.309Z,99.70
2023-05-16T13:38:48.598Z,99.90
2023-05-16T13:42:52.810Z,98.70
2023-05-16T13:46:55.802Z,97.50
2023-05-16T13:50:58.694Z,96.40
2023-05-16T13:55:01.537Z,98.60
2023-05-16T13:59:07.213Z,98.00
2023-05-16T14:03:10.765Z,98.40
2023-05-16T14:07:13.702Z,97.00
2023-05-16T14:11:16.981Z,97.30
2023-05-16T14:15:21.171Z,97.80
2023-05-16T14:19:24.094Z,97.70
2023-05-16T14:23:27.018Z,97.90
2023-05-16T14:27:29.844Z,98.20
2023-05-16T14:31:36.376Z,98.10
2023-05-16T14:35:39.413Z,98.60
2023-05-16T14:39:42.733Z,98.90
2023-05-16T14:43:46.147Z,99.10
2023-05-16T14:47:50.459Z,99.20
2023-05-16T14:51:53.341Z,99.20
2023-05-16T14:55:56.222Z,99.10
2023-05-16T14:59:59.562Z,99.00
2023-05-16T15:04:03.800Z,99.80
2023-05-16T15:08:06.702Z,99.90
2023-05-16T15:12:09.917Z,99.90
2023-05-16T15:16:12.842Z,99.90
2023-05-16T15:20:17.039Z,99.90
2023-05-16T15:24:19.946Z,99.10
2023-05-16T15:28:22.908Z,99.10
2023-05-16T15:32:26.187Z,99.20
2023-05-16T15:36:30.652Z,97.80
2023-05-16T15:40:33.489Z,97.80
2023-05-16T15:44:36.308Z,97.70
2023-05-16T15:48:42.739Z,97.90
2023-05-16T15:52:46.980Z,98.00
2023-05-16T15:56:49.856Z,98.00
2023-05-16T16:00:54.596Z,98.90
2023-05-16T16:04:57.437Z,99.10
2023-05-16T16:09:01.754Z,99.10
2023-05-16T16:13:05.146Z,99.90
2023-05-16T16:17:08.001Z,96.90
2023-05-16T16:21:11.123Z,96.80
2023-05-16T16:25:15.483Z,97.90
2023-05-16T16:29:18.301Z,97.00
2023-05-16T16:33:21.158Z,97.40
2023-05-16T16:37:23.986Z,97.30
2023-05-16T16:41:28.178Z,97.70
2023-05-16T16:45:31.269Z,97.70
2023-05-16T16:49:34.219Z,97.90
2023-05-16T16:53:38.042Z,98.10
2023-05-16T16:57:42.416Z,97.60
2023-05-16T17:01:46.837Z,97.90
2023-05-16T17:05:49.771Z,96.90
2023-05-16T17:09:54.004Z,97.10
2023-05-16T17:18:15.105Z,97.60
2023-05-16T17:22:17.981Z,98.00
2023-05-16T17:26:22.135Z,98.10
2023-05-16T17:30:24.966Z,98.10
2023-05-16T17:34:29.146Z,98.20
2023-05-16T17:38:32.791Z,98.10
2023-05-16T17:42:35.707Z,98.30
2023-05-16T17:46:42.551Z,98.40
2023-05-16T17:50:46.715Z,98.70
2023-05-16T17:54:49.701Z,98.90
2023-05-16T17:58:53.400Z,99.10
2023-05-16T18:02:56.284Z,99.50
2023-05-16T18:07:01.352Z,99.90
2023-05-16T18:11:06.963Z,99.60
2023-05-16T18:15:10.688Z,99.80
2023-05-16T18:19:13.618Z,99.90
2023-05-16T18:23:17.862Z,99.90
2023-05-16T18:27:20.778Z,99.90
2023-05-16T18:31:23.920Z,99.90
2023-05-16T18:35:27.774Z,99.90
2023-05-16T18:39:33.026Z,99.90
2023-05-16T18:43:36.674Z,99.90
2023-05-16T18:47:39.735Z,99.90
2023-05-16T18:51:42.721Z,99.90
2023-05-16T18:55:48.597Z,99.90
2023-05-16T18:59:53.654Z,99.90
2023-05-16T19:03:56.906Z,99.90
2023-05-16T19:07:59.926Z,99.90
2023-05-16T19:12:06.816Z,99.90
2023-05-16T19:16:09.809Z,99.90
2023-05-16T19:20:12.740Z,99.90
2023-05-16T19:24:15.617Z,99.90
2023-05-16T19:28:21.906Z,99.90
2023-05-16T19:32:24.794Z,99.90
2023-05-16T19:36:28.199Z,99.90
2023-05-16T19:40:31.475Z,99.90
2023-05-16T19:44:35.664Z,99.90
2023-05-16T19:48:40.673Z,99.90
2023-05-16T19:52:43.656Z,99.90
2023-05-16T19:56:46.489Z,99.90
2023-05-16T20:00:50.959Z,99.90
2023-05-16T20:04:53.965Z,99.90
2023-05-16T20:08:56.856Z,99.90
2023-05-16T20:12:59.683Z,99.90
2023-05-16T20:17:03.954Z,99.90
2023-05-16T20:21:07.392Z,99.90
2023-05-16T20:25:11.747Z,99.90
2023-05-16T20:29:14.582Z,99.90
2023-05-16T20:33:18.877Z,99.90
2023-05-16T20:37:26.514Z,99.90
2023-05-16T20:41:29.399Z,99.90
2023-05-16T20:45:32.318Z,99.90
2023-05-16T20:49:37.790Z,99.90
2023-05-16T20:53:40.697Z,99.90
2023-05-16T20:57:43.908Z,99.90
2023-05-16T21:01:46.991Z,99.90
2023-05-16T21:05:51.702Z,99.90
2023-05-16T21:09:54.910Z,99.90
2023-05-16T21:13:57.857Z,99.90
2023-05-16T21:18:00.788Z,99.90
2023-05-16T21:22:05.468Z,99.90
2023-05-16T21:26:08.473Z,99.90
2023-05-16T21:30:12.139Z,99.90
2023-05-16T21:34:15.287Z,99.90
2023-05-16T21:42:23.803Z,99.90
2023-05-16T21:46:26.907Z,99.90
2023-05-16T21:50:31.206Z,99.90
2023-05-16T21:54:35.479Z,99.90
2023-05-16T21:58:38.725Z,99.90
2023-05-16T22:02:42.453Z,99.90
2023-05-16T22:06:45.414Z,99.90
2023-05-16T22:10:49.619Z,99.90
2023-05-16T22:14:52.457Z,99.90
2023-05-16T22:18:55.403Z,99.90
2023-05-16T22:22:58.660Z,99.90
2023-05-16T22:27:02.842Z,99.90
2023-05-16T22:31:05.900Z,99.90
2023-05-16T22:35:09.024Z,99.90
2023-05-16T22:39:11.934Z,99.90
2023-05-16T22:43:16.424Z,99.90
2023-05-16T22:47:19.329Z,99.90
2023-05-16T22:51:22.227Z,99.90
2023-05-16T22:55:25.244Z,99.90
2023-05-16T22:59:29.702Z,99.90
2023-05-16T23:03:33.993Z,99.90
2023-05-16T23:07:36.880Z,99.90
2023-05-16T23:11:39.725Z,99.90
2023-05-16T23:15:43.971Z,99.90
2023-05-16T23:19:46.913Z,99.90
2023-05-16T23:23:49.761Z,99.90
2023-05-16T23:27:53.604Z,99.90
2023-05-16T23:31:57.880Z,99.90
2023-05-16T23:36:00.713Z,99.90
2023-05-16T23:40:03.557Z,99.90
2023-05-16T23:44:06.541Z,99.90
2023-05-16T23:48:10.898Z,99.90
2023-05-16T23:52:13.808Z,99.90
2023-05-16T23:56:16.750Z,99.90
